Time;durP1;ratioP1;P1;durP2;ratioP2;P2;SDS_P1;SDS_P2;PMS_P1;PMS_P2;Temp;Humidity;BMP_temperature;BMP_pressure;BME280_temperature;BME280_humidity;BME280_pressure;Samples;Min_cycle;Max_cycle;Signal;HPM_P1;HPM_P2
2023/10/26 00:01:26;;;;;;;18.00;4.50;;;15.10;99.90;;;;;;5032724;28;21459;-80
2023/10/26 00:03:52;;;;;;;15.07;4.70;;;15.00;99.90;;;;;;5031234;28;20025;-80
2023/10/26 00:06:18;;;;;;;15.80;4.80;;;15.00;99.90;;;;;;5032185;28;20124;-80
2023/10/26 00:08:45;;;;;;;12.50;4.57;;;15.00;99.90;;;;;;5031477;28;20030;-80
2023/10/26 00:11:10;;;;;;;10.50;4.05;;;15.00;99.90;;;;;;5030925;28;20022;-80
2023/10/26 00:13:36;;;;;;;13.98;4.30;;;15.00;99.90;;;;;;5033530;28;20021;-79
2023/10/26 00:16:03;;;;;;;11.40;4.60;;;15.00;99.90;;;;;;5036271;28;20029;-80
2023/10/26 00:18:29;;;;;;;17.90;4.10;;;15.00;99.90;;;;;;5035942;28;20108;-80
2023/10/26 00:20:59;;;;;;;12.95;5.03;;;15.00;99.90;;;;;;5035002;28;20315;-80
2023/10/26 00:23:25;;;;;;;9.57;4.07;;;15.00;99.90;;;;;;5034575;28;20030;-80
2023/10/26 00:25:51;;;;;;;12.82;5.35;;;15.00;99.90;;;;;;5035995;28;20029;-83
2023/10/26 00:28:16;;;;;;;11.93;4.45;;;15.00;99.90;;;;;;5034843;28;20376;-80
2023/10/26 00:30:42;;;;;;;13.93;4.75;;;14.90;99.90;;;;;;5026497;28;20024;-79
2023/10/26 00:33:08;;;;;;;14.23;5.07;;;14.90;99.90;;;;;;5034641;28;20448;-80
2023/10/26 00:35:34;;;;;;;17.02;4.88;;;14.90;99.90;;;;;;5034423;28;20042;-80
2023/10/26 00:38:00;;;;;;;8.90;3.53;;;14.80;99.90;;;;;;5034618;28;20033;-80
2023/10/26 00:40:26;;;;;;;13.70;7.20;;;14.80;99.90;;;;;;5035647;28;20021;-80
2023/10/26 00:42:59;;;;;;;11.95;4.30;;;14.80;99.90;;;;;;5035583;28;20029;-80
2023/10/26 00:45:30;;;;;;;12.18;4.18;;;14.70;99.90;;;;;;5034201;28;20025;-80
2023/10/26 00:47:57;;;;;;;11.27;3.92;;;14.70;99.90;;;;;;5035479;28;20091;-79
2023/10/26 00:50:23;;;;;;;11.23;6.32;;;14.70;99.90;;;;;;5035666;28;20025;-81
2023/10/26 00:52:49;;;;;;;9.65;3.85;;;14.70;99.90;;;;;;5033525;28;20032;-80
2023/10/26 00:55:16;;;;;;;10.95;3.85;;;14.80;99.90;;;;;;5034460;28;20044;-81
2023/10/26 00:57:42;;;;;;;10.77;4.35;;;14.80;99.90;;;;;;5033725;28;20033;-81
2023/10/26 01:00:09;;;;;;;10.40;4.35;;;14.80;99.90;;;;;;5035144;28;20097;-82
2023/10/26 01:02:36;;;;;;;10.45;4.15;;;14.90;99.90;;;;;;5033378;28;20014;-80
2023/10/26 01:05:03;;;;;;;10.80;4.28;;;14.90;99.90;;;;;;5034290;28;20029;-80
2023/10/26 01:07:29;;;;;;;10.25;4.15;;;14.90;99.90;;;;;;5033145;28;20044;-80
2023/10/26 01:09:56;;;;;;;10.05;4.20;;;15.00;99.90;;;;;;5035058;28;20025;-80
2023/10/26 01:12:22;;;;;;;19.13;6.35;;;15.00;99.90;;;;;;5034601;28;20040;-81
2023/10/26 01:14:48;;;;;;;13.48;5.47;;;15.00;99.90;;;;;;5035536;28;20059;-81
2023/10/26 01:17:15;;;;;;;14.05;4.88;;;15.00;99.90;;;;;;5033545;28;20051;-81
2023/10/26 01:19:43;;;;;;;11.25;4.63;;;15.00;99.90;;;;;;5034450;28;20025;-80
2023/10/26 01:22:09;;;;;;;12.20;4.88;;;15.00;99.90;;;;;;5033541;28;20026;-80
2023/10/26 01:24:36;;;;;;;15.25;4.07;;;15.10;99.90;;;;;;5033745;28;20511;-80
2023/10/26 01:27:02;;;;;;;7.88;3.55;;;15.00;99.90;;;;;;5034375;28;20052;-80
2023/10/26 01:29:28;;;;;;;12.25;4.10;;;15.00;99.90;;;;;;5033614;28;20448;-80
2023/10/26 01:31:53;;;;;;;12.75;3.70;;;15.10;99.90;;;;;;5034667;28;20032;-80
2023/10/26 01:34:19;;;;;;;13.18;3.60;;;15.10;99.90;;;;;;5033291;28;20412;-80
2023/10/26 01:36:45;;;;;;;13.07;4.07;;;15.10;99.90;;;;;;5034455;28;20108;-80
2023/10/26 01:39:13;;;;;;;11.70;3.95;;;15.20;99.90;;;;;;5034540;28;20025;-80
2023/10/26 01:41:39;;;;;;;12.88;3.50;;;15.20;99.90;;;;;;5034800;28;20025;-81
2023/10/26 01:44:05;;;;;;;6.97;3.25;;;15.20;99.90;;;;;;5034978;28;20083;-81
2023/10/26 01:46:30;;;;;;;10.35;3.38;;;15.30;99.90;;;;;;5027681;28;20425;-80
2023/10/26 01:48:56;;;;;;;9.48;3.20;;;15.30;99.90;;;;;;5033364;28;20026;-80
2023/10/26 01:51:22;;;;;;;12.10;4.03;;;15.40;99.90;;;;;;5034564;28;20033;-81
2023/10/26 01:53:48;;;;;;;9.85;3.25;;;15.40;99.90;;;;;;5033062;28;20026;-80
2023/10/26 01:56:13;;;;;;;10.20;3.00;;;15.40;99.90;;;;;;5033981;28;20452;-81
2023/10/26 01:58:39;;;;;;;8.95;3.47;;;15.50;99.90;;;;;;5033119;28;20032;-80
2023/10/26 02:01:05;;;;;;;10.95;3.50;;;15.50;99.90;;;;;;5032550;28;20022;-80
2023/10/26 02:03:31;;;;;;;8.00;3.50;;;15.50;99.90;;;;;;5036701;28;20025;-81
2023/10/26 02:05:57;;;;;;;9.70;3.10;;;15.50;99.90;;;;;;5033795;28;20082;-82
2023/10/26 02:08:23;;;;;;;11.25;3.05;;;15.50;99.90;;;;;;5032478;28;20030;-82
2023/10/26 02:10:48;;;;;;;9.32;3.55;;;15.50;99.90;;;;;;5033639;28;20037;-82
2023/10/26 02:13:14;;;;;;;11.73;4.00;;;15.40;99.90;;;;;;5034034;28;20027;-81
2023/10/26 02:15:40;;;;;;;16.60;4.00;;;15.40;99.90;;;;;;5033410;28;20022;-82
2023/10/26 02:18:06;;;;;;;13.20;3.42;;;15.40;99.90;;;;;;5032731;28;20128;-81
2023/10/26 02:20:32;;;;;;;10.23;2.92;;;15.40;99.90;;;;;;5032892;28;20550;-82
2023/10/26 02:22:57;;;;;;;11.98;3.13;;;15.40;99.90;;;;;;5033056;28;20495;-82
2023/10/26 02:25:23;;;;;;;9.50;2.70;;;15.50;99.90;;;;;;5033809;28;20402;-81
2023/10/26 02:27:49;;;;;;;6.65;3.30;;;15.50;99.90;;;;;;5065271;28;20036;-81
2023/10/26 02:30:15;;;;;;;7.65;2.63;;;15.50;99.90;;;;;;5031917;28;20029;-82
2023/10/26 02:32:40;;;;;;;9.40;2.90;;;15.50;99.90;;;;;;5033653;28;20032;-82
2023/10/26 02:35:07;;;;;;;9.95;2.85;;;15.60;99.90;;;;;;5032424;28;20017;-82
2023/10/26 02:37:38;;;;;;;11.75;3.05;;;15.60;99.90;;;;;;5032885;28;20112;-82
2023/10/26 02:40:05;;;;;;;11.48;2.90;;;15.60;99.90;;;;;;5032512;28;20407;-82
2023/10/26 02:42:31;;;;;;;11.02;3.28;;;15.60;99.90;;;;;;5032765;28;20412;-81
2023/10/26 02:44:57;;;;;;;14.55;2.55;;;15.60;99.90;;;;;;5032394;28;20459;-80
2023/10/26 02:47:23;;;;;;;9.00;2.70;;;15.60;99.90;;;;;;5032611;28;20037;-80
2023/10/26 02:49:49;;;;;;;9.82;2.83;;;15.60;99.90;;;;;;5034269;28;20035;-80
2023/10/26 02:52:15;;;;;;;7.63;2.67;;;15.50;99.90;;;;;;5032342;28;20025;-81
2023/10/26 02:54:42;;;;;;;9.43;2.95;;;15.50;99.90;;;;;;5033522;28;20071;-80
2023/10/26 02:57:08;;;;;;;13.15;3.97;;;15.40;99.90;;;;;;5030973;28;20021;-80
2023/10/26 02:59:34;;;;;;;13.45;3.35;;;15.40;99.90;;;;;;5059675;28;20026;-80
2023/10/26 03:02:00;;;;;;;15.75;4.90;;;15.40;99.90;;;;;;5032720;28;20079;-81
2023/10/26 03:04:25;;;;;;;16.75;6.35;;;15.40;99.90;;;;;;5033419;28;20052;-81
2023/10/26 03:06:51;;;;;;;15.90;5.45;;;15.20;99.90;;;;;;5032636;28;20038;-81
2023/10/26 03:09:17;;;;;;;14.93;4.57;;;15.20;99.90;;;;;;5033630;28;20094;-81
2023/10/26 03:11:43;;;;;;;11.60;3.65;;;15.20;99.90;;;;;;5032887;28;20029;-81
2023/10/26 03:14:09;;;;;;;10.00;3.17;;;15.20;99.90;;;;;;5031828;28;20022;-81
2023/10/26 03:16:35;;;;;;;10.90;3.47;;;15.10;99.90;;;;;;5033049;28;20028;-81
2023/10/26 03:19:01;;;;;;;10.02;3.65;;;15.10;99.90;;;;;;5032656;28;20518;-81
2023/10/26 03:21:27;;;;;;;8.35;2.75;;;15.10;99.90;;;;;;5032881;28;20026;-81
2023/10/26 03:23:53;;;;;;;11.18;3.85;;;15.10;99.90;;;;;;5032934;28;20040;-81
2023/10/26 03:26:19;;;;;;;10.00;3.50;;;15.20;99.90;;;;;;5032184;28;20037;-81
2023/10/26 03:28:45;;;;;;;12.95;3.13;;;15.20;99.90;;;;;;5033152;28;20101;-81
2023/10/26 03:31:11;;;;;;;17.63;3.08;;;15.20;99.90;;;;;;5031841;28;20151;-80
2023/10/26 03:33:38;;;;;;;11.45;3.33;;;15.20;99.90;;;;;;5032619;28;20041;-81
2023/10/26 03:36:04;;;;;;;9.57;2.63;;;15.20;99.90;;;;;;5032973;28;20026;-81
2023/10/26 03:38:30;;;;;;;13.82;3.10;;;15.30;99.90;;;;;;5032703;28;20049;-81
2023/10/26 03:40:56;;;;;;;12.43;3.00;;;15.30;99.90;;;;;;5031062;28;20059;-81
2023/10/26 03:43:21;;;;;;;13.07;3.63;;;15.30;99.90;;;;;;5032762;28;20028;-81
2023/10/26 03:45:47;;;;;;;13.00;3.10;;;15.40;99.90;;;;;;5032405;28;20030;-82
2023/10/26 03:48:13;;;;;;;9.07;3.00;;;15.40;99.90;;;;;;5032354;28;20132;-81
2023/10/26 03:50:39;;;;;;;9.95;2.67;;;15.40;99.90;;;;;;5035561;28;20055;-82
2023/10/26 03:53:04;;;;;;;11.13;3.08;;;15.50;99.90;;;;;;5036731;28;20025;-82
2023/10/26 03:55:30;;;;;;;9.70;2.28;;;15.50;99.90;;;;;;5036384;28;20100;-81
2023/10/26 03:57:56;;;;;;;10.18;2.53;;;15.50;99.90;;;;;;5029139;28;20444;-82
2023/10/26 04:00:22;;;;;;;9.55;2.75;;;15.50;99.90;;;;;;5035857;28;20022;-81
2023/10/26 04:02:47;;;;;;;8.20;2.85;;;15.50;99.90;;;;;;5033240;28;20017;-81
2023/10/26 04:05:15;;;;;;;6.85;2.10;;;15.40;99.90;;;;;;5034880;28;20021;-81
2023/10/26 04:07:42;;;;;;;9.75;1.92;;;15.40;99.90;;;;;;5035663;28;20357;-82
2023/10/26 04:10:08;;;;;;;14.10;2.70;;;15.40;99.90;;;;;;5035666;28;20109;-82
2023/10/26 04:12:35;;;;;;;8.32;2.25;;;15.50;99.90;;;;;;5035936;28;20363;-81
2023/10/26 04:15:01;;;;;;;12.93;2.40;;;15.50;99.90;;;;;;5034483;28;20116;-81
2023/10/26 04:17:27;;;;;;;9.00;2.42;;;15.60;99.90;;;;;;5036410;28;20025;-81
2023/10/26 04:19:52;;;;;;;10.65;2.30;;;15.60;99.90;;;;;;5034883;28;20037;-82
2023/10/26 04:22:18;;;;;;;12.10;2.67;;;15.60;99.90;;;;;;5035235;28;20022;-81
2023/10/26 04:24:44;;;;;;;15.50;3.15;;;15.60;99.90;;;;;;5036309;28;20117;-79
2023/10/26 04:27:10;;;;;;;15.52;3.70;;;15.60;99.90;;;;;;5034858;28;20040;-81
2023/10/26 04:29:35;;;;;;;12.52;4.20;;;15.60;99.90;;;;;;5035392;28;20017;-78
2023/10/26 04:32:01;;;;;;;12.55;4.22;;;15.60;99.90;;;;;;5036044;28;20029;-79
2023/10/26 04:34:27;;;;;;;17.23;4.65;;;15.60;99.90;;;;;;5036123;28;20029;-79
2023/10/26 04:36:52;;;;;;;11.48;4.15;;;15.60;99.90;;;;;;5035725;28;20086;-79
2023/10/26 04:39:18;;;;;;;14.57;4.18;;;15.60;99.90;;;;;;5035645;28;20440;-79
2023/10/26 04:41:44;;;;;;;18.13;3.70;;;15.60;99.90;;;;;;5035361;28;20036;-79
2023/10/26 04:44:11;;;;;;;11.40;3.97;;;15.60;99.90;;;;;;5035132;28;20521;-79
2023/10/26 04:46:37;;;;;;;10.85;3.08;;;15.60;99.90;;;;;;5035532;28;20633;-79
2023/10/26 04:49:03;;;;;;;13.65;3.72;;;15.60;99.90;;;;;;5035501;28;20028;-79
2023/10/26 04:51:32;;;;;;;13.88;3.13;;;15.70;99.90;;;;;;5035075;28;20115;-84
2023/10/26 04:53:58;;;;;;;12.10;2.85;;;15.70;99.90;;;;;;5035160;28;20033;-79
2023/10/26 04:56:23;;;;;;;10.73;3.10;;;15.70;99.90;;;;;;5035230;28;20021;-79
2023/10/26 04:58:49;;;;;;;17.50;2.88;;;15.70;99.90;;;;;;5035327;28;20017;-79
2023/10/26 05:01:15;;;;;;;10.80;2.95;;;15.70;99.90;;;;;;5033534;28;20430;-79
2023/10/26 05:03:41;;;;;;;14.70;2.53;;;15.80;99.90;;;;;;5035783;28;20029;-79
2023/10/26 05:06:06;;;;;;;10.82;2.03;;;15.80;99.90;;;;;;5035542;28;20368;-79
2023/10/26 05:08:32;;;;;;;12.40;2.75;;;15.80;99.90;;;;;;5035743;28;20356;-79
2023/10/26 05:10:58;;;;;;;7.95;2.55;;;15.80;99.90;;;;;;5035176;28;20025;-79
2023/10/26 05:13:25;;;;;;;8.35;3.25;;;15.90;99.90;;;;;;5035787;28;20053;-79
2023/10/26 05:15:51;;;;;;;10.60;3.45;;;15.90;99.90;;;;;;5035717;28;20033;-79
2023/10/26 05:18:17;;;;;;;9.15;2.67;;;15.90;99.90;;;;;;5034020;28;20022;-79
2023/10/26 05:20:51;;;;;;;10.23;3.20;;;15.90;99.90;;;;;;5035313;28;20083;-79
2023/10/26 05:23:18;;;;;;;13.77;3.60;;;15.90;99.90;;;;;;5034471;28;20115;-79
2023/10/26 05:25:44;;;;;;;17.60;3.33;;;15.90;99.90;;;;;;5035220;28;20030;-80
2023/10/26 05:28:10;;;;;;;13.52;2.70;;;15.90;99.90;;;;;;5050962;28;20028;-79
2023/10/26 05:30:35;;;;;;;11.50;2.40;;;15.90;99.90;;;;;;5043122;28;20029;-81
2023/10/26 05:33:01;;;;;;;10.68;2.47;;;16.00;99.90;;;;;;5035716;28;20032;-81
2023/10/26 05:35:27;;;;;;;15.82;2.45;;;16.00;99.90;;;;;;5033812;28;20025;-81
2023/10/26 05:37:53;;;;;;;9.82;2.92;;;16.00;99.90;;;;;;5035303;28;20037;-81
2023/10/26 05:40:19;;;;;;;11.20;2.72;;;16.10;99.90;;;;;;5035260;28;20017;-80
2023/10/26 05:42:44;;;;;;;10.93;3.05;;;16.10;99.90;;;;;;5033724;28;20532;-80
2023/10/26 05:45:10;;;;;;;14.70;2.90;;;16.10;99.90;;;;;;5033817;28;20124;-80
2023/10/26 05:47:36;;;;;;;11.80;1.95;;;16.20;99.90;;;;;;5033696;28;20026;-80
2023/10/26 05:50:03;;;;;;;11.32;2.30;;;16.20;99.90;;;;;;5034791;28;20033;-80
2023/10/26 05:52:29;;;;;;;12.55;2.20;;;16.20;99.90;;;;;;5034682;28;20387;-80
2023/10/26 05:54:54;;;;;;;10.27;2.25;;;16.10;99.90;;;;;;5035152;28;20108;-80
2023/10/26 05:57:20;;;;;;;11.02;2.13;;;16.10;99.90;;;;;;5033241;28;20463;-80
2023/10/26 05:59:46;;;;;;;9.40;2.55;;;16.10;99.90;;;;;;5034921;28;20025;-80
2023/10/26 06:02:11;;;;;;;8.00;2.10;;;16.10;99.90;;;;;;5034808;28;20025;-80
2023/10/26 06:04:37;;;;;;;8.98;2.28;;;16.10;99.90;;;;;;5034571;28;20406;-80
2023/10/26 06:07:03;;;;;;;12.10;2.90;;;16.10;99.90;;;;;;5034565;28;20416;-80
2023/10/26 06:09:29;;;;;;;12.23;2.65;;;16.10;99.90;;;;;;5034852;28;20472;-80
2023/10/26 06:11:55;;;;;;;12.40;2.40;;;16.10;99.90;;;;;;5032449;28;20349;-80
2023/10/26 06:14:21;;;;;;;9.80;3.30;;;16.10;99.90;;;;;;5034581;28;20033;-80
2023/10/26 06:16:47;;;;;;;11.20;2.58;;;16.10;99.90;;;;;;5033285;28;20026;-80
2023/10/26 06:19:13;;;;;;;9.55;2.53;;;16.10;99.90;;;;;;5034300;28;20171;-80
2023/10/26 06:21:39;;;;;;;7.63;2.58;;;16.10;99.90;;;;;;5034135;28;20017;-80
2023/10/26 06:24:06;;;;;;;12.63;3.75;;;16.10;99.90;;;;;;5033853;28;20108;-79
2023/10/26 06:26:32;;;;;;;9.70;3.40;;;16.20;99.90;;;;;;5034139;28;20038;-79
2023/10/26 06:28:59;;;;;;;10.10;3.65;;;16.20;99.90;;;;;;5033803;28;20034;-79
2023/10/26 06:31:25;;;;;;;7.82;2.95;;;16.30;99.90;;;;;;5032716;28;20030;-79
2023/10/26 06:33:51;;;;;;;11.15;3.20;;;16.30;99.90;;;;;;5037454;28;20029;-79
2023/10/26 06:36:17;;;;;;;22.40;4.90;;;16.40;99.90;;;;;;5053921;28;20112;-79
2023/10/26 06:38:43;;;;;;;11.70;3.13;;;16.40;99.90;;;;;;5033963;28;20486;-79
2023/10/26 06:41:09;;;;;;;15.00;3.72;;;16.50;99.90;;;;;;5032309;28;20033;-78
2023/10/26 06:43:36;;;;;;;17.88;3.25;;;16.50;99.90;;;;;;5031419;28;20053;-79
2023/10/26 06:46:03;;;;;;;20.15;3.17;;;16.60;99.90;;;;;;5033559;28;20496;-79
2023/10/26 06:48:29;;;;;;;15.52;3.35;;;16.70;99.90;;;;;;5033904;28;20049;-78
2023/10/26 06:51:02;;;;;;;12.25;3.00;;;16.70;99.90;;;;;;5032236;28;20029;-79
2023/10/26 06:53:28;;;;;;;11.23;3.72;;;16.70;99.90;;;;;;5033495;28;20021;-79
2023/10/26 06:55:55;;;;;;;13.95;3.88;;;16.80;99.90;;;;;;5034346;28;20100;-78
2023/10/26 06:58:20;;;;;;;10.73;3.42;;;16.80;99.90;;;;;;5034138;28;20010;-79
2023/10/26 07:00:47;;;;;;;10.90;3.70;;;16.90;99.90;;;;;;5033237;28;20135;-79
2023/10/26 07:03:13;;;;;;;15.68;3.28;;;16.90;99.90;;;;;;5030824;28;20399;-79
2023/10/26 07:05:40;;;;;;;11.15;2.75;;;16.90;99.90;;;;;;5033556;28;20045;-79
2023/10/26 07:08:06;;;;;;;16.23;4.75;;;16.90;99.90;;;;;;5032005;28;20036;-79
2023/10/26 07:10:31;;;;;;;15.77;7.28;;;16.90;99.90;;;;;;5033719;28;20108;-79
2023/10/26 07:12:57;;;;;;;19.10;8.88;;;17.00;99.90;;;;;;5032956;28;20022;-79
2023/10/26 07:15:23;;;;;;;21.80;8.38;;;17.00;99.90;;;;;;5031541;28;20444;-79
2023/10/26 07:17:49;;;;;;;18.08;7.13;;;17.00;99.90;;;;;;5032917;28;20028;-79
2023/10/26 07:20:15;;;;;;;15.50;5.50;;;17.20;99.90;;;;;;5032824;28;20403;-79
2023/10/26 07:22:42;;;;;;;12.38;4.55;;;17.30;99.90;;;;;;5030020;28;20060;-81
2023/10/26 07:25:09;;;;;;;13.85;4.22;;;17.40;99.90;;;;;;5035946;28;20021;-81
2023/10/26 07:27:35;;;;;;;13.70;3.95;;;17.50;99.90;;;;;;5037123;28;20037;-81
2023/10/26 07:30:01;;;;;;;12.90;4.50;;;17.70;99.90;;;;;;5036965;28;20029;-81
2023/10/26 07:32:27;;;;;;;14.13;4.68;;;;;;;;;;5036383;28;20108;-81
2023/10/26 07:34:54;;;;;;;13.98;3.92;;;18.00;99.90;;;;;;5037742;28;20018;-80
2023/10/26 07:37:20;;;;;;;23.95;5.88;;;;;;;;;;5036255;28;20029;-82
2023/10/26 07:39:46;;;;;;;13.00;4.30;;;18.40;99.90;;;;;;5037820;28;20104;-82
2023/10/26 07:42:12;;;;;;;13.18;4.30;;;18.70;99.90;;;;;;5037161;28;20436;-83
2023/10/26 07:44:38;;;;;;;11.95;4.65;;;;;;;;;;5036167;28;20021;-83
2023/10/26 07:47:07;;;;;;;9.52;3.40;;;19.10;99.90;;;;;;5037336;28;20155;-83
2023/10/26 07:49:34;;;;;;;16.00;4.05;;;19.10;99.90;;;;;;5035658;28;20033;-83
2023/10/26 07:52:00;;;;;;;7.28;2.47;;;19.30;99.90;;;;;;5035993;28;20018;-84
2023/10/26 07:54:26;;;;;;;11.27;2.38;;;19.50;99.90;;;;;;5037764;28;20013;-83
2023/10/26 07:56:51;;;;;;;11.82;2.75;;;19.60;99.90;;;;;;5035749;28;20029;-83
2023/10/26 07:59:17;;;;;;;7.95;2.72;;;19.70;99.90;;;;;;5035823;28;20444;-84
2023/10/26 08:01:44;;;;;;;9.35;4.30;;;19.80;98.10;;;;;;5037201;28;20108;-83
2023/10/26 08:04:10;;;;;;;5.93;2.38;;;;;;;;;;5036727;28;20108;-84
2023/10/26 08:06:36;;;;;;;11.63;5.40;;;20.10;96.20;;;;;;5036968;28;20046;-84
2023/10/26 08:09:02;;;;;;;10.93;3.92;;;20.20;95.80;;;;;;5037023;28;20014;-84
2023/10/26 08:11:28;;;;;;;13.55;5.82;;;20.20;95.70;;;;;;5035491;28;20032;-85
2023/10/26 08:13:53;;;;;;;13.05;6.22;;;20.20;94.50;;;;;;5035615;28;20033;-84
2023/10/26 08:16:20;;;;;;;10.52;5.53;;;20.20;94.30;;;;;;5053011;28;20021;-85
2023/10/26 08:18:45;;;;;;;7.00;5.10;;;20.30;93.40;;;;;;5043127;28;20026;-83
2023/10/26 08:21:13;;;;;;;9.57;4.45;;;20.30;94.00;;;;;;5036513;28;20112;-84
2023/10/26 08:23:38;;;;;;;9.20;6.38;;;20.40;93.80;;;;;;5035159;28;20363;-85
2023/10/26 08:26:06;;;;;;;9.80;5.13;;;20.60;93.50;;;;;;5034483;28;20112;-86
2023/10/26 08:28:33;;;;;;;10.10;6.57;;;;;;;;;;5035234;28;20108;-85
2023/10/26 08:31:01;;;;;;;9.52;5.00;;;;;;;;;;5034981;28;20444;-83
2023/10/26 08:33:27;;;;;;;10.93;6.05;;;;;;;;;;5036512;28;20022;-84
2023/10/26 09:00:57;;;;;;;7.57;6.78;;;21.10;93.00;;;;;;5157803;27;20320;-84
2023/10/26 09:03:23;;;;;;;6.97;5.82;;;21.10;92.60;;;;;;5152305;27;20031;-85
2023/10/26 09:05:54;;;;;;;7.80;5.00;;;20.90;94.80;;;;;;5152471;27;20364;-84
2023/10/26 09:08:22;;;;;;;7.60;5.15;;;20.80;97.40;;;;;;5132357;27;20142;-85
2023/10/26 09:10:48;;;;;;;11.50;5.75;;;20.70;96.60;;;;;;5152228;27;20025;-86
2023/10/26 09:13:23;;;;;;;10.48;5.63;;;20.60;96.70;;;;;;5133478;27;20027;-86
2023/10/26 09:15:50;;;;;;;11.43;5.82;;;20.60;98.70;;;;;;5134333;27;20019;-84
2023/10/26 09:18:16;;;;;;;9.30;5.80;;;20.60;97.50;;;;;;5133717;27;20058;-82
2023/10/26 09:20:45;;;;;;;8.82;5.60;;;20.60;98.60;;;;;;5152195;27;20019;-82
2023/10/26 09:23:27;;;;;;;7.55;5.30;;;20.60;99.90;;;;;;5138786;27;20042;-82
2023/10/26 09:26:03;;;;;;;10.85;5.25;;;20.60;99.90;;;;;;5126468;27;20046;-83
2023/10/26 09:28:28;;;;;;;12.15;4.80;;;20.50;99.90;;;;;;5133565;27;20023;-83
2023/10/26 09:30:59;;;;;;;14.65;4.70;;;20.50;99.90;;;;;;5133793;27;20465;-82
2023/10/26 09:33:26;;;;;;;9.33;4.93;;;20.50;98.70;;;;;;5133418;27;20019;-83
2023/10/26 09:35:52;;;;;;;6.60;5.22;;;20.70;99.10;;;;;;5152043;27;20019;-83
2023/10/26 09:38:36;;;;;;;6.57;5.45;;;20.80;99.90;;;;;;5152324;27;20021;-83
2023/10/26 09:41:11;;;;;;;8.10;5.60;;;21.00;96.60;;;;;;5133449;27;20027;-84
2023/10/26 09:43:40;;;;;;;14.13;5.28;;;21.10;97.80;;;;;;5152162;27;20033;-84
2023/10/26 09:46:07;;;;;;;11.70;6.38;;;21.10;97.10;;;;;;5132977;27;20367;-85
2023/10/26 09:48:33;;;;;;;7.60;5.50;;;21.20;96.40;;;;;;5151523;27;20023;-84
2023/10/26 09:51:01;;;;;;;14.25;6.53;;;21.20;96.80;;;;;;5151641;27;20507;-84
2023/10/26 09:53:41;;;;;;;12.02;7.15;;;21.20;98.10;;;;;;5152060;27;20026;-84
2023/10/26 09:56:17;;;;;;;12.07;5.70;;;21.20;97.10;;;;;;5126955;27;20026;-85
2023/10/26 09:58:43;;;;;;;10.65;7.45;;;21.20;95.70;;;;;;5125167;27;20023;-84
2023/10/26 10:01:33;;;;;;;14.63;7.85;;;21.20;95.30;;;;;;5123691;27;20113;-84
2023/10/26 10:04:11;;;;;;;12.70;7.30;;;21.20;94.30;;;;;;5118778;27;20034;-85
2023/10/26 10:06:58;;;;;;;15.93;8.05;;;21.30;94.70;;;;;;5150523;27;20014;-84
2023/10/26 10:09:26;;;;;;;11.60;6.25;;;21.30;95.80;;;;;;5133349;27;20517;-85
2023/10/26 10:12:04;;;;;;;17.08;6.80;;;;;;;;;;5121975;27;20468;-86
2023/10/26 10:14:48;;;;;;;13.30;6.72;;;21.40;98.10;;;;;;5137906;27;20049;-86
2023/10/26 10:17:15;;;;;;;8.77;6.25;;;21.40;99.90;;;;;;5118956;27;20454;-84
2023/10/26 10:19:43;;;;;;;9.07;6.88;;;21.40;99.30;;;;;;5105399;28;20027;-85
2023/10/26 10:22:33;;;;;;;15.02;5.90;;;21.50;98.70;;;;;;5113177;27;20034;-83
2023/10/26 10:25:00;;;;;;;12.43;6.88;;;;;;;;;;5118985;27;20464;-83
2023/10/26 10:27:27;;;;;;;9.50;6.47;;;;;;;;;;5118909;27;20457;-83
2023/10/26 10:29:59;;;;;;;8.45;6.43;;;;;;;;;;5109968;27;20481;-84
2023/10/26 10:32:44;;;;;;;12.65;7.07;;;;;;;;;;5108526;27;20532;-84
2023/10/26 10:35:11;;;;;;;19.90;7.82;;;;;;;;;;5126181;27;20015;-84
2023/10/26 10:37:38;;;;;;;12.95;9.05;;;;;;;;;;5122848;27;20022;-85
2023/10/26 10:40:14;;;;;;;12.95;8.05;;;;;;;;;;5118891;27;20023;-86
2023/10/26 10:42:52;;;;;;;10.10;7.05;;;;;;;;;;5118903;27;20030;-86
2023/10/26 10:45:19;;;;;;;10.27;6.85;;;;;;;;;;5098130;28;20536;-86
2023/10/26 10:47:47;;;;;;;7.50;5.88;;;;;;;;;;5134831;27;20068;-87
2023/10/26 10:50:16;;;;;;;7.72;5.63;;;;;;;;;;5136765;27;20027;-86
2023/10/26 10:52:42;;;;;;;12.70;6.40;;;;;;;;;;5118585;27;20075;-87
2023/10/26 10:55:09;;;;;;;9.63;5.97;;;;;;;;;;5135115;27;20015;-87
2023/10/26 10:57:35;;;;;;;7.65;5.35;;;;;;;;;;5117358;27;20019;-87
2023/10/26 11:00:01;;;;;;;18.55;6.70;;;;;;;;;;5117441;27;20096;-87
2023/10/26 11:02:28;;;;;;;10.52;6.15;;;;;;;;;;5117483;27;20019;-88
2023/10/26 11:04:55;;;;;;;11.23;7.07;;;;;;;;;;5118497;27;20027;-87
2023/10/26 11:07:28;;;;;;;9.40;7.78;;;;;;;;;;5115147;27;20052;-85
2023/10/26 11:18:09;;;;;;;11.35;8.55;;;;;;;;;;5116048;27;20815;-84
2023/10/26 11:20:37;;;;;;;11.80;8.52;;;;;;;;;;5092589;28;20404;-85
2023/10/26 11:23:07;;;;;;;11.05;9.50;;;;;;;;;;5068008;28;20028;-84
2023/10/26 11:25:33;;;;;;;10.57;9.55;;;;;;;;;;5050547;28;20032;-84
2023/10/26 11:28:00;;;;;;;11.68;9.10;;;;;;;;;;5051144;28;20374;-86
2023/10/26 11:30:26;;;;;;;13.15;8.48;;;;;;;;;;5050946;28;20049;-84
2023/10/26 11:32:52;;;;;;;11.45;9.60;;;;;;;;;;5050347;28;20067;-84
2023/10/26 11:35:18;;;;;;;9.60;8.70;;;;;;;;;;5049963;28;20107;-85
2023/10/26 11:37:45;;;;;;;12.05;9.60;;;;;;;;;;5050601;28;20467;-85
2023/10/26 11:40:13;;;;;;;9.55;8.75;;;;;;;;;;5050309;28;20441;-85
2023/10/26 11:42:45;;;;;;;12.88;8.40;;;;;;;;;;5050607;28;20036;-86
2023/10/26 11:45:13;;;;;;;9.48;7.28;;;;;;;;;;5050600;28;20028;-87
2023/10/26 11:47:48;;;;;;;9.65;4.18;;;;;;;;;;5042522;28;20029;-85
2023/10/26 11:50:24;;;;;;;9.43;7.75;;;;;;;;;;5040427;28;20459;-86
2023/10/26 11:52:51;;;;;;;8.45;7.65;;;;;;;;;;5056985;28;20456;-87
2023/10/26 11:55:18;;;;;;;13.85;8.90;;;;;;;;;;5082774;28;20039;-87
2023/10/26 11:57:47;;;;;;;10.18;7.72;;;;;;;;;;5089578;28;20107;-87
2023/10/26 12:00:14;;;;;;;9.30;8.10;;;;;;;;;;5091737;28;20461;-86
2023/10/26 12:02:41;;;;;;;9.40;8.48;;;;;;;;;;5092002;28;20016;-87
2023/10/26 12:05:07;;;;;;;9.48;8.57;;;;;;;;;;5110478;28;20065;-86
2023/10/26 12:07:34;;;;;;;10.77;9.68;;;;;;;;;;5066451;28;20037;-87
2023/10/26 12:10:02;;;;;;;14.90;9.93;;;;;;;;;;5067100;28;20063;-86
2023/10/26 12:12:34;;;;;;;11.70;10.70;;;;;;;;;;5066749;28;20024;-90
2023/10/26 12:15:00;;;;;;;10.52;9.52;;;;;;;;;;5049991;28;20116;-89
2023/10/26 12:17:26;;;;;;;12.20;9.38;;;;;;;;;;5035465;28;20048;-87
2023/10/26 12:19:52;;;;;;;7.32;6.63;;;;;;;;;;5030343;28;20579;-87
2023/10/26 12:22:19;;;;;;;11.93;7.88;;;;;;;;;;5029697;28;20037;-87
2023/10/26 12:24:45;;;;;;;9.80;8.15;;;;;;;;;;5036196;28;20484;-86
2023/10/26 12:27:11;;;;;;;9.23;8.43;;;;;;;;;;5027326;28;20045;-87
2023/10/26 12:29:37;;;;;;;11.07;8.93;;;;;;;;;;5015938;28;20040;-86
2023/10/26 12:32:04;;;;;;;10.63;8.32;;;;;;;;;;5016881;28;20092;-86
2023/10/26 12:34:31;;;;;;;12.00;8.68;;;;;;;;;;5016738;28;20116;-86
2023/10/26 12:36:57;;;;;;;11.95;8.68;;;;;;;;;;5016320;28;20053;-86
2023/10/26 12:39:23;;;;;;;14.55;8.20;;;;;;;;;;5051136;28;20032;-86
2023/10/26 12:41:49;;;;;;;11.55;8.77;;;;;;;;;;5057789;28;20028;-86
2023/10/26 12:44:16;;;;;;;16.67;8.85;;;;;;;;;;5057244;28;20027;-86
2023/10/26 12:46:42;;;;;;;11.75;8.02;;;;;;;;;;5057511;28;20024;-86
2023/10/26 12:49:08;;;;;;;13.90;9.68;;;;;;;;;;5075389;28;20024;-85
2023/10/26 12:51:35;;;;;;;20.30;7.82;;;;;;;;;;5057418;28;20115;-85
2023/10/26 12:54:01;;;;;;;13.82;10.73;;;;;;;;;;5057171;28;20027;-82
2023/10/26 12:56:27;;;;;;;18.38;9.15;;;;;;;;;;5074587;28;20025;-83
2023/10/26 12:58:53;;;;;;;16.23;5.40;;;;;;;;;;5057083;28;20024;-81
2023/10/26 13:01:19;;;;;;;22.60;9.98;;;21.80;92.10;;;;;;5075072;28;20031;-80
2023/10/26 13:03:44;;;;;;;19.27;12.07;;;21.50;97.30;;;;;;5067059;28;20092;-80
2023/10/26 13:06:10;;;;;;;20.23;10.18;;;21.30;99.90;;;;;;5051894;28;20070;-81
2023/10/26 13:08:36;;;;;;;21.73;9.30;;;21.10;99.90;;;;;;5056912;28;20021;-80
2023/10/26 13:11:03;;;;;;;20.98;10.50;;;20.90;99.90;;;;;;5055652;28;20020;-80
2023/10/26 13:13:29;;;;;;;21.23;9.85;;;20.50;99.90;;;;;;5074285;28;20021;-81
2023/10/26 13:15:54;;;;;;;21.25;9.93;;;20.30;99.90;;;;;;5074606;28;20481;-81
2023/10/26 13:18:21;;;;;;;23.05;9.07;;;20.20;99.90;;;;;;5074822;28;20020;-80
2023/10/26 13:20:47;;;;;;;19.08;9.25;;;19.90;99.90;;;;;;5074948;28;20059;-81
2023/10/26 13:23:12;;;;;;;13.95;8.27;;;19.80;99.90;;;;;;5074969;28;20060;-81
2023/10/26 13:25:38;;;;;;;18.25;8.38;;;19.80;99.90;;;;;;5056165;28;20052;-81
2023/10/26 13:28:04;;;;;;;19.98;7.68;;;19.80;99.90;;;;;;5073851;28;20063;-81
2023/10/26 13:30:30;;;;;;;15.13;7.43;;;19.80;99.90;;;;;;5074142;28;20028;-82
2023/10/26 13:32:55;;;;;;;13.55;8.43;;;19.80;99.90;;;;;;5054430;28;20024;-82